Latest Weather Observations for Hobart Airport

IDT60901

Issued at 10:15 pm EST Monday 28 July 2014 (issued every 10 minutes, with the page automatically refreshed every 10 minutes)

About weather observations | Map of Hobart area stations | Latest observations for Hobart area | Other Formats
Station Details ID: 094008 Name: HOBART AIRPORT Lat: -42.83 Lon: 147.50 Height: 4.0 m
Data from the previous 72 hours. | See also: Recent months at Hobart Airport
Date/Time
EST
Tmp

°C
App
Tmp
°C
Dew
Point
°C
Rel
Hum
%
Delta-T

°C
Wind Press
QNH
hPa
Press
MSL
hPa
Rain
since
9 am
mm
Dir
 
Spd
km/h
Gust
km/h
Spd
kts
Gust
kts
28/10:00pm 11.9 5.2 3.6 57 3.7 N 28 41 15 22 1000.6 1000.6 0.2
28/09:30pm 11.6 6.0 3.3 56 3.7 N 22 37 12 20 1000.4 - 0.2
28/09:00pm 11.1 5.3 4.2 62 3.1 NNW 24 37 13 20 1000.7 1000.7 0.2
28/08:30pm 12.3 5.5 3.3 54 4.0 NNW 28 46 15 25 1001.3 - 0.2
28/08:26pm 12.3 5.5 3.3 54 4.0 NNW 28 46 15 25 1001.4 - 0.2
28/08:00pm 11.2 7.1 4.1 61 3.2 N 15 22 8 12 1001.8 1001.8 0.2
28/07:30pm 12.7 9.5 3.3 52 4.2 N 9 17 5 9 1002.1 - 0.2
28/07:00pm 13.1 6.2 2.4 48 4.7 NW 28 44 15 24 1002.1 1002.1 0.2
28/06:30pm 13.6 8.2 1.0 42 5.4 NNW 19 24 10 13 1001.9 - 0.2
28/06:00pm 13.0 9.5 1.1 44 5.1 N 9 15 5 8 1001.4 1001.4 0.2
28/05:30pm 11.8 8.2 2.7 53 4.0 N 11 15 6 8 1001.2 - 0.2
28/05:00pm 14.1 9.0 0.5 39 5.8 NNW 17 32 9 17 1001.4 1001.4 0.2
28/04:30pm 14.5 9.6 -0.2 36 6.2 NW 15 28 8 15 1001.8 - 0.2
28/04:00pm 15.4 8.6 -1.6 31 7.0 NNW 24 37 13 20 1001.7 1001.7 0.2
28/03:30pm 15.9 8.3 -2.2 29 7.4 NW 28 41 15 22 1001.8 - 0.2
28/03:00pm 16.1 8.3 -0.7 31 7.1 NW 30 48 16 26 1002.2 1002.2 0.2
28/02:39pm 16.1 7.9 -0.7 31 7.1 NW 32 50 17 27 1002.2 - 0.2
28/02:30pm 16.0 7.8 0.2 34 6.8 NW 33 48 18 26 1002.2 - 0.2
28/02:13pm 16.0 7.9 -0.1 33 6.9 NW 32 50 17 27 1002.3 - 0.2
28/02:00pm 16.3 7.8 0.7 34 6.8 NW 35 46 19 25 1002.4 1002.4 0.2
28/01:30pm 16.2 7.2 -0.1 33 6.9 WNW 37 52 20 28 1002.9 - 0.2
28/01:00pm 15.7 7.3 1.4 38 6.3 NW 35 50 19 27 1003.5 1003.5 0.2
28/12:30pm 15.3 7.1 0.4 36 6.4 NW 33 48 18 26 1004.0 - 0.2
28/12:00pm 15.2 7.2 1.9 40 5.9 NNW 33 48 18 26 1004.3 1004.3 0.2
28/11:38am 14.2 6.2 3.7 49 4.8 NW 35 54 19 29 1004.8 - 0.2
28/11:30am 14.3 5.9 3.5 48 4.9 NW 37 52 20 28 1004.8 - 0.2
28/11:26am 14.5 6.8 3.5 47 5.0 NNW 33 52 18 28 1005.1 - 0.2
28/11:00am 14.5 7.4 3.8 48 4.9 NW 30 44 16 24 1005.4 1005.4 0.0
28/10:30am 14.5 7.4 3.8 48 4.9 NW 30 43 16 23 1005.4 - 0.0
28/10:00am 14.4 9.6 4.8 52 4.5 NNW 19 28 10 15 1005.7 1005.7 0.0
28/09:30am 14.1 9.1 4.6 52 4.4 NNW 20 32 11 17 1005.7 - 0.0
28/09:00am 13.6 8.6 4.5 54 4.2 NNW 20 32 11 17 1005.8 1005.8 0.0
28/08:30am 12.4 8.9 5.3 62 3.3 NNW 13 20 7 11 1005.8 - 0.0
28/08:00am 12.1 7.8 5.4 63 3.1 NNW 17 28 9 15 1005.6 1005.6 0.0
28/07:30am 11.6 6.8 5.8 67 2.7 NNW 20 30 11 16 1005.9 - 0.0
28/07:00am 11.4 6.9 6.1 70 2.5 N 19 33 10 18 1006.1 1006.1 0.0
28/06:30am 11.8 8.6 6.8 71 2.4 NNW 13 17 7 9 1006.3 - 0.0
28/06:00am 12.5 9.2 6.2 65 3.0 NNW 13 17 7 9 1006.0 1006.0 0.0
28/05:30am 11.5 8.2 6.4 71 2.4 NNW 13 15 7 8 1005.9 - 0.0
28/05:00am 12.0 7.9 6.1 67 2.8 N 17 24 9 13 1005.9 1005.9 0.0
28/04:30am 10.6 7.2 5.9 73 2.2 NNW 13 20 7 11 1006.4 - 0.0
28/04:00am 9.8 6.2 4.9 71 2.2 NNW 13 19 7 10 1006.4 1006.4 0.0
28/03:30am 8.6 5.0 5.0 78 1.6 NNW 13 19 7 10 1006.7 - 0.0
28/03:00am 10.2 7.4 5.2 71 2.3 NNW 9 15 5 8 1007.2 1007.2 0.0
28/02:30am 9.3 7.0 5.8 79 1.6 S 7 9 4 5 1007.8 - 0.0
28/02:00am 9.0 5.6 5.7 80 1.5 N 13 19 7 10 1008.2 1008.2 0.0
28/01:30am 8.8 5.8 6.0 82 1.3 NNW 11 17 6 9 1008.7 - 0.0
28/01:00am 10.2 8.1 5.9 74 2.0 NE 6 9 3 5 1008.7 1008.7 0.0
28/12:30am 9.6 7.4 6.1 79 1.6 WNW 7 11 4 6 1009.2 - 0.0
28/12:00am 10.1 6.4 6.2 77 1.8 NNW 15 20 8 11 1009.5 1009.5 0.0
 
Date/Time
EST
Tmp

°C
App
Tmp
°C
Dew
Point
°C
Rel
Hum
%
Delta-T

°C
Wind Press
QNH
hPa
Press
MSL
hPa
Rain
since
9 am
mm
Dir
 
Spd
km/h
Gust
km/h
Spd
kts
Gust
kts
27/11:30pm 9.8 5.7 6.1 78 1.7 NNW 17 32 9 17 1010.1 - 0.0
27/11:00pm 10.3 5.8 6.2 76 1.9 N 19 26 10 14 1010.1 1010.1 0.0
27/10:30pm 10.6 7.2 6.1 74 2.1 WNW 13 19 7 10 1011.0 - 0.0
27/10:00pm 9.9 6.6 6.2 78 1.7 NNW 13 26 7 14 1011.4 1011.4 0.0
27/09:30pm 10.2 6.8 5.9 74 2.0 N 13 19 7 10 1011.5 - 0.0
27/09:00pm 9.8 7.1 5.4 74 2.0 N 9 13 5 7 1011.8 1011.8 0.0
27/08:30pm 9.8 7.6 5.4 74 2.0 W 6 9 3 5 1011.9 - 0.0
27/08:00pm 8.5 6.1 5.1 79 1.5 SSE 7 11 4 6 1012.2 1012.2 0.0
27/07:30pm 10.1 9.0 5.3 72 2.2 CALM 0 4 0 2 1012.4 - 0.0
27/07:00pm 8.4 7.0 5.5 82 1.3 SSW 2 7 1 4 1012.7 1012.7 0.0
27/06:30pm 9.2 6.9 5.5 78 1.7 S 7 9 4 5 1012.6 - 0.0
27/06:00pm 11.2 9.0 5.1 66 2.8 NNE 6 9 3 5 1012.7 1012.7 0.0
27/05:30pm 11.0 7.8 5.3 68 2.6 N 11 13 6 7 1012.9 - 0.0
27/05:00pm 11.2 7.7 5.6 68 2.6 N 13 19 7 10 1013.0 1013.0 0.0
27/04:30pm 12.7 7.9 4.9 59 3.6 N 19 28 10 15 1013.0 - 0.0
27/04:00pm 13.3 8.5 4.6 55 4.0 N 19 26 10 14 1013.2 1013.3 0.0
27/03:30pm 13.9 10.6 4.6 53 4.3 NW 11 15 6 8 1013.5 - 0.0
27/03:00pm 14.6 11.8 5.0 52 4.5 N 9 11 5 6 1013.4 1013.5 0.0
27/02:30pm 14.6 11.4 5.0 52 4.5 N 11 17 6 9 1013.6 - 0.0
27/02:00pm 14.5 10.3 3.8 48 4.9 NNW 15 28 8 15 1014.2 1014.3 0.0
27/01:30pm 14.2 10.5 4.2 51 4.6 NNW 13 19 7 10 1014.7 - 0.0
27/01:00pm 14.0 10.4 5.0 54 4.2 NW 13 17 7 9 1015.3 1015.4 0.0
27/12:30pm 13.0 9.8 6.8 66 3.0 NW 13 19 7 10 1016.4 - 0.0
27/12:00pm 12.1 8.4 6.4 68 2.7 NW 15 19 8 10 1016.9 1017.0 0.0
27/11:30am 11.4 7.6 5.6 67 2.7 NW 15 17 8 9 1017.5 - 0.0
27/11:00am 10.8 7.0 5.8 71 2.3 NW 15 19 8 10 1017.8 1017.9 0.0
27/10:30am 10.3 7.0 6.2 76 1.9 NNW 13 17 7 9 1018.6 - 0.0
27/10:00am 9.5 5.4 6.2 80 1.5 N 17 26 9 14 1019.1 1019.2 0.0
27/09:30am 8.7 5.7 6.1 84 1.2 N 11 17 6 9 1019.7 - 0.0
27/09:00am 7.8 5.0 5.3 84 1.1 NNW 9 13 5 7 1019.8 1019.9 0.2
27/08:30am 6.3 3.0 4.7 89 0.7 NW 11 17 6 9 1020.0 - 0.2
27/08:00am 5.9 3.0 4.5 91 0.6 NW 9 17 5 9 1019.6 1019.7 0.2
27/07:30am 5.5 2.2 4.3 92 0.5 NNW 11 15 6 8 1019.5 - 0.2
27/07:00am 5.1 0.2 3.9 92 0.5 NW 19 20 10 11 1019.4 1019.5 0.2
27/06:30am 5.1 0.5 3.9 92 0.5 NW 17 20 9 11 1019.5 - 0.2
27/06:00am 5.1 2.7 4.2 94 0.4 NNW 6 11 3 6 1019.3 1019.4 0.2
27/05:30am 5.0 1.2 3.8 92 0.5 NW 13 13 7 7 1019.5 - 0.2
27/05:00am 5.4 1.0 4.5 94 0.4 NW 17 19 9 10 1019.8 1019.9 0.2
27/04:30am 5.7 2.4 4.5 92 0.5 NW 11 15 6 8 1020.1 - 0.2
27/04:00am 5.7 0.7 4.5 92 0.5 NW 20 24 11 13 1020.1 1020.2 0.2
27/03:30am 5.6 1.1 4.4 92 0.5 NW 17 20 9 11 1020.2 - 0.0
27/03:00am 4.9 1.5 3.9 93 0.4 NNW 11 13 6 7 1020.5 1020.6 0.0
27/02:30am 4.0 1.3 3.5 97 0.2 NNW 7 9 4 5 1020.5 - 0.0
27/02:00am 5.2 1.9 4.5 95 0.3 NW 11 15 6 8 1020.9 1021.0 0.0
27/01:30am 5.4 1.7 4.7 95 0.3 WNW 13 17 7 9 1021.0 - 0.0
27/01:00am 5.3 2.4 4.6 95 0.3 WNW 9 13 5 7 1020.9 1021.0 0.0
27/12:30am 5.4 1.7 4.7 95 0.3 NW 13 15 7 8 1021.3 - 0.0
27/12:00am 5.8 3.6 5.1 95 0.3 NW 6 9 3 5 1021.4 1021.5 0.0
 
Date/Time
EST
Tmp

°C
App
Tmp
°C
Dew
Point
°C
Rel
Hum
%
Delta-T

°C
Wind Press
QNH
hPa
Press
MSL
hPa
Rain
since
9 am
mm
Dir
 
Spd
km/h
Gust
km/h
Spd
kts
Gust
kts
26/11:30pm 5.7 4.2 5.2 97 0.2 NW 2 9 1 5 1021.7 - 0.0
26/11:00pm 6.1 3.4 5.4 95 0.3 NW 9 13 5 7 1021.7 1021.8 0.0
26/10:30pm 6.3 3.2 5.6 95 0.3 NW 11 13 6 7 1021.8 - 0.0
26/10:00pm 6.4 3.0 5.7 95 0.3 NW 13 17 7 9 1021.7 1021.8 0.0
26/09:30pm 6.3 3.6 5.8 97 0.2 WNW 9 13 5 7 1021.6 - 0.0
26/09:00pm 6.5 3.5 5.8 95 0.3 WNW 11 13 6 7 1021.4 1021.5 0.0
26/08:30pm 6.9 3.6 6.2 95 0.3 NW 13 13 7 7 1021.2 - 0.0
26/08:00pm 7.3 5.2 6.6 95 0.3 WNW 7 11 4 6 1020.9 1021.0 0.0
26/07:30pm 5.8 4.5 5.8 100 0.0 NW 2 6 1 3 1020.9 - 0.0
26/07:00pm 7.9 6.6 7.7 99 0.1 NW 4 9 2 5 1020.8 1020.9 0.0
26/06:50pm 8.2 5.9 7.6 96 0.3 NNE 9 11 5 6 1020.8 - 0.0
26/06:30pm 7.8 7.0 6.7 93 0.5 CALM 0 0 0 0 1020.7 - 0.0
26/06:00pm 8.5 7.9 7.4 93 0.5 CALM 0 0 0 0 1020.6 1020.7 0.0
26/05:30pm 9.6 9.1 7.9 89 0.8 CALM 0 0 0 0 1020.5 - 0.0
26/05:00pm 10.0 9.6 8.1 88 0.9 CALM 0 0 0 0 1020.1 1020.2 0.0
26/04:30pm 11.3 9.6 8.4 82 1.4 SE 7 9 4 5 1019.8 - 0.0
26/04:00pm 12.1 10.1 8.5 78 1.8 SE 9 11 5 6 1019.7 1019.8 0.0
26/03:30pm 12.5 10.4 8.2 75 2.1 SE 9 11 5 6 1019.7 - 0.0
26/03:00pm 12.8 10.9 7.7 71 2.5 SE 7 11 4 6 1019.4 1019.5 0.0
26/02:30pm 12.8 10.6 7.9 72 2.4 NNE 9 11 5 6 1019.4 - 0.0
26/02:00pm 13.3 11.2 8.3 72 2.5 ESE 9 13 5 7 1019.4 1019.5 0.0
26/01:30pm 12.9 12.1 8.0 72 2.4 NE 2 9 1 5 1019.6 - 0.0
26/01:00pm 12.9 11.0 7.6 70 2.6 NNE 7 7 4 4 1019.7 1019.8 0.0
26/12:30pm 11.0 9.3 7.5 79 1.7 NNW 6 7 3 4 1020.1 - 0.0
26/12:00pm 11.2 9.3 7.4 77 1.8 NW 7 9 4 5 1020.5 1020.6 0.0
26/11:30am 11.6 9.8 7.2 74 2.1 NW 6 7 3 4 1020.7 - 0.0
26/11:00am 10.4 8.0 7.0 79 1.6 WNW 9 11 5 6 1021.2 1021.3 0.0
26/10:30am 9.6 6.8 6.8 83 1.3 WNW 11 13 6 7 1021.1 - 0.0
26/10:00am 9.0 6.5 6.6 85 1.1 NNW 9 13 5 7 1021.0 1021.1 0.0
26/09:30am 7.8 4.9 6.3 90 0.7 WNW 11 13 6 7 1021.0 - 0.0
26/09:00am 7.3 5.6 6.0 91 0.6 NW 4 7 2 4 1020.8 1020.9 0.4
26/08:30am 6.6 3.9 5.5 93 0.5 NW 9 13 5 7 1020.6 - 0.4
26/08:00am 5.7 3.4 4.8 94 0.4 NNW 6 11 3 6 1020.4 1020.5 0.4
26/07:30am 5.7 3.4 5.0 95 0.3 NW 6 9 3 5 1020.3 - 0.4
26/07:00am 5.6 2.4 4.9 95 0.3 NW 11 15 6 8 1019.9 1020.0 0.4
26/06:30am 5.3 2.4 4.6 95 0.3 W 9 11 5 6 1019.8 - 0.4
26/06:00am 5.0 2.1 4.5 97 0.2 NNW 9 9 5 5 1019.7 1019.8 0.4
26/05:30am 5.0 3.4 4.3 95 0.3 NW 2 9 1 5 1019.6 - 0.4
26/05:00am 6.2 3.8 5.3 94 0.4 NW 7 11 4 6 1019.6 1019.7 0.4
26/04:30am 6.5 4.7 5.6 94 0.4 WNW 4 9 2 5 1019.5 - 0.4
26/04:00am 6.4 3.3 5.5 94 0.4 W 11 15 6 8 1019.2 1019.3 0.4
26/03:30am 6.1 3.9 5.2 94 0.4 WNW 6 7 3 4 1019.2 - 0.4
26/03:00am 6.0 3.2 5.3 95 0.3 NW 9 11 5 6 1019.1 1019.2 0.4
26/02:30am 6.3 3.9 5.4 94 0.4 NNW 7 11 4 6 1019.3 - 0.4
26/02:00am 6.0 3.6 5.3 95 0.3 NW 7 13 4 7 1019.1 1019.2 0.4
26/01:30am 5.8 2.2 5.1 95 0.3 WNW 13 15 7 8 1019.0 - 0.4
26/01:00am 5.9 2.7 5.2 95 0.3 NNW 11 17 6 9 1018.9 1019.0 0.4
26/12:30am 5.8 3.4 5.1 95 0.3 NW 7 11 4 6 1019.2 - 0.4
26/12:00am 6.2 3.9 5.5 95 0.3 NW 7 13 4 7 1019.3 1019.4 0.4
 
Date/Time
EST
Tmp

°C
App
Tmp
°C
Dew
Point
°C
Rel
Hum
%
Delta-T

°C
Wind Press
QNH
hPa
Press
MSL
hPa
Rain
since
9 am
mm
Dir
 
Spd
km/h
Gust
km/h
Spd
kts
Gust
kts
25/11:30pm 6.1 3.7 5.4 95 0.3 NW 7 9 4 5 1019.3 - 0.4
25/11:00pm 6.1 3.4 5.6 97 0.2 WNW 9 13 5 7 1019.1 1019.2 0.4
25/10:30pm 6.5 3.9 6.1 97 0.2 NW 9 11 5 6 1018.9 - 0.4

Latest Capital City Observations: Canberra | Sydney | Melbourne | Brisbane | Adelaide | Perth | Hobart | Darwin

Other Formats:

Comma delimited format used in spreadsheet applications
http://www.bom.gov.au/fwo/IDT60901/IDT60901.94975.axf

JavaScript Object Notation format (JSON) in row-major order
http://www.bom.gov.au/fwo/IDT60901/IDT60901.94975.json